sensor_id;sensor_type;location;lat;lon;timestamp;P1;durP1;ratioP1;P2;durP2;ratioP2
68214;SDS011;55036;52.138;5.236;2022-12-18T00:01:21;60.83;;;23.58;;
68214;SDS011;55036;52.138;5.236;2022-12-18T00:03:55;60.17;;;24.13;;
68214;SDS011;55036;52.138;5.236;2022-12-18T00:06:23;55.63;;;24.30;;
68214;SDS011;55036;52.138;5.236;2022-12-18T00:08:51;64.97;;;24.20;;
68214;SDS011;55036;52.138;5.236;2022-12-18T00:11:18;52.55;;;22.27;;
68214;SDS011;55036;52.138;5.236;2022-12-18T00:13:46;60.45;;;25.10;;
68214;SDS011;55036;52.138;5.236;2022-12-18T00:16:15;60.45;;;24.35;;
68214;SDS011;55036;52.138;5.236;2022-12-18T00:18:46;57.10;;;21.90;;
68214;SDS011;55036;52.138;5.236;2022-12-18T00:21:14;48.67;;;21.75;;
68214;SDS011;55036;52.138;5.236;2022-12-18T00:23:41;53.80;;;22.23;;
68214;SDS011;55036;52.138;5.236;2022-12-18T00:26:17;53.55;;;21.67;;
68214;SDS011;55036;52.138;5.236;2022-12-18T00:28:46;50.83;;;23.75;;
68214;SDS011;55036;52.138;5.236;2022-12-18T00:31:14;51.05;;;21.40;;
68214;SDS011;55036;52.138;5.236;2022-12-18T00:33:42;53.03;;;22.52;;
68214;SDS011;55036;52.138;5.236;2022-12-18T00:36:10;50.72;;;22.30;;
68214;SDS011;55036;52.138;5.236;2022-12-18T00:38:39;57.35;;;23.50;;
68214;SDS011;55036;52.138;5.236;2022-12-18T00:41:07;50.65;;;21.55;;
68214;SDS011;55036;52.138;5.236;2022-12-18T00:43:36;48.47;;;21.27;;
68214;SDS011;55036;52.138;5.236;2022-12-18T00:46:04;52.80;;;21.85;;
68214;SDS011;55036;52.138;5.236;2022-12-18T00:48:31;49.85;;;21.15;;
68214;SDS011;55036;52.138;5.236;2022-12-18T00:50:58;45.95;;;19.95;;
68214;SDS011;55036;52.138;5.236;2022-12-18T00:53:25;53.40;;;22.65;;
68214;SDS011;55036;52.138;5.236;2022-12-18T00:55:51;51.42;;;22.55;;
68214;SDS011;55036;52.138;5.236;2022-12-18T00:58:18;47.65;;;20.95;;
68214;SDS011;55036;52.138;5.236;2022-12-18T01:00:45;54.97;;;24.25;;
68214;SDS011;55036;52.138;5.236;2022-12-18T01:03:12;53.88;;;21.85;;
68214;SDS011;55036;52.138;5.236;2022-12-18T01:05:41;55.10;;;24.33;;
68214;SDS011;55036;52.138;5.236;2022-12-18T01:08:08;60.33;;;23.65;;
68214;SDS011;55036;52.138;5.236;2022-12-18T01:10:35;54.10;;;24.30;;
68214;SDS011;55036;52.138;5.236;2022-12-18T01:13:02;57.58;;;24.73;;
68214;SDS011;55036;52.138;5.236;2022-12-18T01:15:28;56.83;;;21.48;;
68214;SDS011;55036;52.138;5.236;2022-12-18T01:17:55;52.67;;;23.33;;
68214;SDS011;55036;52.138;5.236;2022-12-18T01:20:22;54.38;;;23.83;;
68214;SDS011;55036;52.138;5.236;2022-12-18T01:22:48;55.65;;;23.00;;
68214;SDS011;55036;52.138;5.236;2022-12-18T01:25:15;49.15;;;21.70;;
68214;SDS011;55036;52.138;5.236;2022-12-18T01:27:42;57.72;;;24.85;;
68214;SDS011;55036;52.138;5.236;2022-12-18T01:30:08;57.47;;;23.83;;
68214;SDS011;55036;52.138;5.236;2022-12-18T01:32:36;57.28;;;23.35;;
68214;SDS011;55036;52.138;5.236;2022-12-18T01:35:02;53.22;;;22.52;;
68214;SDS011;55036;52.138;5.236;2022-12-18T01:37:30;58.58;;;23.30;;
68214;SDS011;55036;52.138;5.236;2022-12-18T01:39:56;53.17;;;22.98;;
68214;SDS011;55036;52.138;5.236;2022-12-18T01:42:23;54.95;;;23.08;;
68214;SDS011;55036;52.138;5.236;2022-12-18T01:52:39;61.95;;;23.83;;
68214;SDS011;55036;52.138;5.236;2022-12-18T01:55:13;61.85;;;24.00;;
68214;SDS011;55036;52.138;5.236;2022-12-18T01:57:42;63.75;;;25.05;;
68214;SDS011;55036;52.138;5.236;2022-12-18T02:00:11;57.55;;;21.95;;
68214;SDS011;55036;52.138;5.236;2022-12-18T02:02:41;59.78;;;25.30;;
68214;SDS011;55036;52.138;5.236;2022-12-18T02:05:10;61.20;;;23.27;;
68214;SDS011;55036;52.138;5.236;2022-12-18T02:10:39;53.70;;;24.50;;
68214;SDS011;55036;52.138;5.236;2022-12-18T02:13:34;51.53;;;21.75;;
68214;SDS011;55036;52.138;5.236;2022-12-18T02:16:09;53.33;;;22.65;;
68214;SDS011;55036;52.138;5.236;2022-12-18T02:18:47;51.47;;;22.17;;
68214;SDS011;55036;52.138;5.236;2022-12-18T02:26:59;50.88;;;22.73;;
68214;SDS011;55036;52.138;5.236;2022-12-18T02:29:36;48.40;;;21.75;;
68214;SDS011;55036;52.138;5.236;2022-12-18T02:32:12;54.42;;;22.00;;
68214;SDS011;55036;52.138;5.236;2022-12-18T02:34:42;54.47;;;23.10;;
68214;SDS011;55036;52.138;5.236;2022-12-18T02:37:12;53.00;;;22.23;;
68214;SDS011;55036;52.138;5.236;2022-12-18T02:39:42;55.05;;;22.95;;
68214;SDS011;55036;52.138;5.236;2022-12-18T02:42:12;53.28;;;23.15;;
68214;SDS011;55036;52.138;5.236;2022-12-18T02:44:43;43.10;;;20.42;;
68214;SDS011;55036;52.138;5.236;2022-12-18T02:47:13;54.47;;;22.05;;
68214;SDS011;55036;52.138;5.236;2022-12-18T02:52:36;50.10;;;22.67;;
68214;SDS011;55036;52.138;5.236;2022-12-18T02:55:26;51.45;;;22.45;;
68214;SDS011;55036;52.138;5.236;2022-12-18T03:02:59;50.97;;;21.20;;
68214;SDS011;55036;52.138;5.236;2022-12-18T03:05:50;50.17;;;22.33;;
68214;SDS011;55036;52.138;5.236;2022-12-18T03:08:27;53.75;;;22.23;;
68214;SDS011;55036;52.138;5.236;2022-12-18T03:11:09;45.05;;;21.73;;
68214;SDS011;55036;52.138;5.236;2022-12-18T03:13:39;43.95;;;19.33;;
68214;SDS011;55036;52.138;5.236;2022-12-18T03:16:09;53.22;;;24.40;;
68214;SDS011;55036;52.138;5.236;2022-12-18T03:18:39;47.15;;;20.25;;
68214;SDS011;55036;52.138;5.236;2022-12-18T03:21:12;52.05;;;20.92;;
68214;SDS011;55036;52.138;5.236;2022-12-18T03:23:44;49.03;;;21.52;;
68214;SDS011;55036;52.138;5.236;2022-12-18T03:26:16;48.83;;;21.50;;
68214;SDS011;55036;52.138;5.236;2022-12-18T03:28:47;43.85;;;21.20;;
68214;SDS011;55036;52.138;5.236;2022-12-18T03:31:19;44.28;;;21.48;;
68214;SDS011;55036;52.138;5.236;2022-12-18T03:33:53;53.97;;;22.42;;
68214;SDS011;55036;52.138;5.236;2022-12-18T03:36:21;52.03;;;22.13;;
68214;SDS011;55036;52.138;5.236;2022-12-18T03:38:49;53.45;;;22.48;;
68214;SDS011;55036;52.138;5.236;2022-12-18T03:41:21;46.47;;;21.60;;
68214;SDS011;55036;52.138;5.236;2022-12-18T03:44:15;50.28;;;21.85;;
68214;SDS011;55036;52.138;5.236;2022-12-18T03:52:10;43.15;;;20.50;;
68214;SDS011;55036;52.138;5.236;2022-12-18T03:54:50;44.93;;;19.40;;
68214;SDS011;55036;52.138;5.236;2022-12-18T03:57:19;51.83;;;20.58;;
68214;SDS011;55036;52.138;5.236;2022-12-18T03:59:49;47.30;;;22.50;;
68214;SDS011;55036;52.138;5.236;2022-12-18T04:02:22;41.28;;;19.40;;
68214;SDS011;55036;52.138;5.236;2022-12-18T04:04:53;49.10;;;20.80;;
68214;SDS011;55036;52.138;5.236;2022-12-18T04:07:24;46.80;;;21.42;;
68214;SDS011;55036;52.138;5.236;2022-12-18T04:09:52;38.90;;;20.67;;
68214;SDS011;55036;52.138;5.236;2022-12-18T04:12:25;51.88;;;20.33;;
68214;SDS011;55036;52.138;5.236;2022-12-18T04:14:53;49.65;;;22.23;;
68214;SDS011;55036;52.138;5.236;2022-12-18T04:17:19;44.42;;;21.33;;
68214;SDS011;55036;52.138;5.236;2022-12-18T04:19:46;40.25;;;19.77;;
68214;SDS011;55036;52.138;5.236;2022-12-18T04:22:13;41.35;;;19.27;;
68214;SDS011;55036;52.138;5.236;2022-12-18T04:24:39;42.40;;;19.38;;
68214;SDS011;55036;52.138;5.236;2022-12-18T04:27:06;41.30;;;19.30;;
68214;SDS011;55036;52.138;5.236;2022-12-18T04:29:33;42.20;;;18.33;;
68214;SDS011;55036;52.138;5.236;2022-12-18T04:31:59;34.13;;;17.02;;
68214;SDS011;55036;52.138;5.236;2022-12-18T04:34:26;42.72;;;18.77;;
68214;SDS011;55036;52.138;5.236;2022-12-18T04:36:53;40.08;;;19.90;;
68214;SDS011;55036;52.138;5.236;2022-12-18T04:39:20;39.30;;;18.38;;
68214;SDS011;55036;52.138;5.236;2022-12-18T04:41:46;37.05;;;17.65;;
68214;SDS011;55036;52.138;5.236;2022-12-18T04:44:13;36.97;;;18.10;;
68214;SDS011;55036;52.138;5.236;2022-12-18T04:46:40;39.47;;;17.58;;
68214;SDS011;55036;52.138;5.236;2022-12-18T04:49:07;39.88;;;17.38;;
68214;SDS011;55036;52.138;5.236;2022-12-18T04:51:36;34.50;;;17.30;;
68214;SDS011;55036;52.138;5.236;2022-12-18T04:54:03;31.60;;;16.42;;
68214;SDS011;55036;52.138;5.236;2022-12-18T04:56:30;39.63;;;18.23;;
68214;SDS011;55036;52.138;5.236;2022-12-18T04:58:57;37.22;;;17.20;;
68214;SDS011;55036;52.138;5.236;2022-12-18T05:01:24;37.38;;;17.15;;
68214;SDS011;55036;52.138;5.236;2022-12-18T05:03:59;34.55;;;15.88;;
68214;SDS011;55036;52.138;5.236;2022-12-18T05:06:26;37.22;;;16.50;;
68214;SDS011;55036;52.138;5.236;2022-12-18T05:08:53;36.58;;;17.58;;
68214;SDS011;55036;52.138;5.236;2022-12-18T05:11:19;35.83;;;16.50;;
68214;SDS011;55036;52.138;5.236;2022-12-18T05:13:46;35.50;;;15.63;;
68214;SDS011;55036;52.138;5.236;2022-12-18T05:16:12;36.25;;;16.75;;
68214;SDS011;55036;52.138;5.236;2022-12-18T05:18:40;34.65;;;16.13;;
68214;SDS011;55036;52.138;5.236;2022-12-18T05:21:07;36.65;;;16.60;;
68214;SDS011;55036;52.138;5.236;2022-12-18T05:23:34;29.55;;;15.88;;
68214;SDS011;55036;52.138;5.236;2022-12-18T05:26:03;33.85;;;15.20;;
68214;SDS011;55036;52.138;5.236;2022-12-18T05:28:32;33.83;;;16.00;;
68214;SDS011;55036;52.138;5.236;2022-12-18T05:31:01;29.58;;;14.88;;
68214;SDS011;55036;52.138;5.236;2022-12-18T05:33:30;27.15;;;14.05;;
68214;SDS011;55036;52.138;5.236;2022-12-18T05:36:00;31.63;;;14.63;;
68214;SDS011;55036;52.138;5.236;2022-12-18T05:38:28;29.08;;;14.13;;
68214;SDS011;55036;52.138;5.236;2022-12-18T05:40:56;31.77;;;14.75;;
68214;SDS011;55036;52.138;5.236;2022-12-18T05:43:23;28.20;;;13.38;;
68214;SDS011;55036;52.138;5.236;2022-12-18T05:45:51;28.75;;;13.77;;
68214;SDS011;55036;52.138;5.236;2022-12-18T05:48:19;26.55;;;13.75;;
68214;SDS011;55036;52.138;5.236;2022-12-18T05:50:46;34.30;;;14.52;;
68214;SDS011;55036;52.138;5.236;2022-12-18T05:53:15;23.05;;;12.77;;
68214;SDS011;55036;52.138;5.236;2022-12-18T05:55:45;28.48;;;13.13;;
68214;SDS011;55036;52.138;5.236;2022-12-18T05:58:13;30.77;;;12.88;;
68214;SDS011;55036;52.138;5.236;2022-12-18T06:00:41;23.65;;;13.57;;
68214;SDS011;55036;52.138;5.236;2022-12-18T06:03:10;24.63;;;13.00;;
68214;SDS011;55036;52.138;5.236;2022-12-18T06:05:39;24.27;;;13.27;;
68214;SDS011;55036;52.138;5.236;2022-12-18T06:08:11;29.08;;;13.98;;
68214;SDS011;55036;52.138;5.236;2022-12-18T06:10:39;27.45;;;13.60;;
68214;SDS011;55036;52.138;5.236;2022-12-18T06:13:06;30.20;;;13.90;;
68214;SDS011;55036;52.138;5.236;2022-12-18T06:15:36;28.42;;;13.18;;
68214;SDS011;55036;52.138;5.236;2022-12-18T06:18:03;29.90;;;14.07;;
68214;SDS011;55036;52.138;5.236;2022-12-18T06:20:30;29.45;;;13.77;;
68214;SDS011;55036;52.138;5.236;2022-12-18T06:22:59;26.73;;;13.57;;
68214;SDS011;55036;52.138;5.236;2022-12-18T06:25:25;22.13;;;12.05;;
68214;SDS011;55036;52.138;5.236;2022-12-18T06:27:52;23.00;;;11.73;;
68214;SDS011;55036;52.138;5.236;2022-12-18T06:30:19;25.83;;;12.57;;
68214;SDS011;55036;52.138;5.236;2022-12-18T06:32:47;22.83;;;10.80;;
68214;SDS011;55036;52.138;5.236;2022-12-18T06:35:21;23.30;;;11.77;;
68214;SDS011;55036;52.138;5.236;2022-12-18T06:37:48;21.27;;;11.73;;
68214;SDS011;55036;52.138;5.236;2022-12-18T06:40:14;23.52;;;12.50;;
68214;SDS011;55036;52.138;5.236;2022-12-18T06:42:41;23.30;;;12.13;;
68214;SDS011;55036;52.138;5.236;2022-12-18T06:45:08;24.02;;;12.43;;
68214;SDS011;55036;52.138;5.236;2022-12-18T06:47:35;19.75;;;12.15;;
68214;SDS011;55036;52.138;5.236;2022-12-18T06:50:02;22.95;;;11.43;;
68214;SDS011;55036;52.138;5.236;2022-12-18T06:52:31;22.42;;;12.55;;
68214;SDS011;55036;52.138;5.236;2022-12-18T06:54:58;21.55;;;11.23;;
68214;SDS011;55036;52.138;5.236;2022-12-18T06:57:25;21.95;;;12.48;;
68214;SDS011;55036;52.138;5.236;2022-12-18T06:59:51;21.80;;;11.35;;
68214;SDS011;55036;52.138;5.236;2022-12-18T07:02:18;26.27;;;11.52;;
68214;SDS011;55036;52.138;5.236;2022-12-18T07:04:45;29.58;;;13.27;;
68214;SDS011;55036;52.138;5.236;2022-12-18T07:07:11;23.02;;;12.00;;
68214;SDS011;55036;52.138;5.236;2022-12-18T07:09:38;22.38;;;11.63;;
68214;SDS011;55036;52.138;5.236;2022-12-18T07:12:05;23.42;;;11.63;;
68214;SDS011;55036;52.138;5.236;2022-12-18T07:14:32;21.13;;;10.98;;
68214;SDS011;55036;52.138;5.236;2022-12-18T07:16:59;19.17;;;11.70;;
68214;SDS011;55036;52.138;5.236;2022-12-18T07:19:26;22.13;;;10.80;;
68214;SDS011;55036;52.138;5.236;2022-12-18T07:21:54;20.52;;;10.88;;
68214;SDS011;55036;52.138;5.236;2022-12-18T07:24:21;20.08;;;10.75;;
68214;SDS011;55036;52.138;5.236;2022-12-18T07:26:47;20.15;;;11.15;;
68214;SDS011;55036;52.138;5.236;2022-12-18T07:29:14;20.50;;;11.02;;
68214;SDS011;55036;52.138;5.236;2022-12-18T07:31:41;24.42;;;11.05;;
68214;SDS011;55036;52.138;5.236;2022-12-18T07:34:11;20.88;;;11.40;;
68214;SDS011;55036;52.138;5.236;2022-12-18T07:36:39;19.48;;;10.10;;
68214;SDS011;55036;52.138;5.236;2022-12-18T07:39:05;22.27;;;11.82;;
68214;SDS011;55036;52.138;5.236;2022-12-18T07:41:32;20.52;;;11.45;;
68214;SDS011;55036;52.138;5.236;2022-12-18T07:43:58;21.13;;;11.35;;
68214;SDS011;55036;52.138;5.236;2022-12-18T07:46:25;21.42;;;11.15;;
68214;SDS011;55036;52.138;5.236;2022-12-18T07:48:52;22.52;;;12.45;;
68214;SDS011;55036;52.138;5.236;2022-12-18T07:51:18;22.55;;;11.48;;
68214;SDS011;55036;52.138;5.236;2022-12-18T07:53:45;22.33;;;11.18;;
68214;SDS011;55036;52.138;5.236;2022-12-18T07:58:54;24.45;;;11.40;;
68214;SDS011;55036;52.138;5.236;2022-12-18T08:01:21;24.92;;;12.93;;
68214;SDS011;55036;52.138;5.236;2022-12-18T08:03:48;18.73;;;10.75;;
68214;SDS011;55036;52.138;5.236;2022-12-18T08:06:17;20.17;;;11.15;;
68214;SDS011;55036;52.138;5.236;2022-12-18T08:08:47;21.92;;;11.48;;
68214;SDS011;55036;52.138;5.236;2022-12-18T08:11:15;18.58;;;11.10;;
68214;SDS011;55036;52.138;5.236;2022-12-18T08:13:41;21.05;;;11.75;;
68214;SDS011;55036;52.138;5.236;2022-12-18T08:16:08;19.98;;;12.23;;
68214;SDS011;55036;52.138;5.236;2022-12-18T08:18:36;20.65;;;10.55;;
68214;SDS011;55036;52.138;5.236;2022-12-18T08:21:09;22.50;;;11.40;;
68214;SDS011;55036;52.138;5.236;2022-12-18T08:23:37;21.73;;;11.23;;
68214;SDS011;55036;52.138;5.236;2022-12-18T08:26:09;18.35;;;11.55;;
68214;SDS011;55036;52.138;5.236;2022-12-18T08:28:39;21.30;;;12.25;;
68214;SDS011;55036;52.138;5.236;2022-12-18T08:31:07;20.30;;;11.75;;
68214;SDS011;55036;52.138;5.236;2022-12-18T08:33:34;21.02;;;11.20;;
68214;SDS011;55036;52.138;5.236;2022-12-18T08:36:04;19.92;;;10.88;;
68214;SDS011;55036;52.138;5.236;2022-12-18T08:38:32;18.60;;;10.85;;
68214;SDS011;55036;52.138;5.236;2022-12-18T08:40:59;21.38;;;11.20;;
68214;SDS011;55036;52.138;5.236;2022-12-18T08:43:30;21.88;;;11.20;;
68214;SDS011;55036;52.138;5.236;2022-12-18T08:46:16;20.02;;;11.60;;
68214;SDS011;55036;52.138;5.236;2022-12-18T08:48:43;22.55;;;12.13;;
68214;SDS011;55036;52.138;5.236;2022-12-18T08:51:10;21.63;;;11.77;;
68214;SDS011;55036;52.138;5.236;2022-12-18T08:53:37;25.83;;;14.10;;
68214;SDS011;55036;52.138;5.236;2022-12-18T08:56:05;24.00;;;14.23;;
68214;SDS011;55036;52.138;5.236;2022-12-18T08:58:32;22.15;;;13.88;;
68214;SDS011;55036;52.138;5.236;2022-12-18T09:01:02;24.83;;;13.50;;
68214;SDS011;55036;52.138;5.236;2022-12-18T09:03:30;21.50;;;13.00;;
68214;SDS011;55036;52.138;5.236;2022-12-18T09:05:58;22.70;;;13.63;;
68214;SDS011;55036;52.138;5.236;2022-12-18T09:08:25;22.67;;;12.75;;
68214;SDS011;55036;52.138;5.236;2022-12-18T09:10:52;20.75;;;12.90;;
68214;SDS011;55036;52.138;5.236;2022-12-18T09:13:19;21.17;;;11.13;;
68214;SDS011;55036;52.138;5.236;2022-12-18T09:15:47;22.27;;;11.90;;
68214;SDS011;55036;52.138;5.236;2022-12-18T09:18:16;23.55;;;12.02;;
68214;SDS011;55036;52.138;5.236;2022-12-18T09:20:45;23.92;;;11.50;;
68214;SDS011;55036;52.138;5.236;2022-12-18T09:23:12;20.02;;;11.95;;
68214;SDS011;55036;52.138;5.236;2022-12-18T09:25:39;16.77;;;10.23;;
68214;SDS011;55036;52.138;5.236;2022-12-18T09:28:09;23.40;;;12.52;;
68214;SDS011;55036;52.138;5.236;2022-12-18T09:30:42;22.65;;;11.65;;
68214;SDS011;55036;52.138;5.236;2022-12-18T09:33:15;19.90;;;10.80;;
68214;SDS011;55036;52.138;5.236;2022-12-18T09:35:43;21.58;;;10.98;;
68214;SDS011;55036;52.138;5.236;2022-12-18T09:38:12;19.95;;;11.32;;
68214;SDS011;55036;52.138;5.236;2022-12-18T09:40:49;18.83;;;10.45;;
68214;SDS011;55036;52.138;5.236;2022-12-18T09:43:24;21.77;;;11.25;;
68214;SDS011;55036;52.138;5.236;2022-12-18T09:46:00;19.33;;;10.98;;
68214;SDS011;55036;52.138;5.236;2022-12-18T09:48:32;22.20;;;10.82;;
68214;SDS011;55036;52.138;5.236;2022-12-18T09:51:04;18.60;;;10.83;;
68214;SDS011;55036;52.138;5.236;2022-12-18T09:53:38;20.00;;;11.18;;
68214;SDS011;55036;52.138;5.236;2022-12-18T09:56:10;19.45;;;10.90;;
68214;SDS011;55036;52.138;5.236;2022-12-18T09:58:48;17.20;;;10.55;;
68214;SDS011;55036;52.138;5.236;2022-12-18T10:01:22;18.63;;;10.40;;
68214;SDS011;55036;52.138;5.236;2022-12-18T10:03:50;21.00;;;11.65;;
68214;SDS011;55036;52.138;5.236;2022-12-18T10:06:24;18.23;;;10.20;;
68214;SDS011;55036;52.138;5.236;2022-12-18T10:08:59;18.75;;;11.18;;
68214;SDS011;55036;52.138;5.236;2022-12-18T10:17:05;19.80;;;12.32;;
68214;SDS011;55036;52.138;5.236;2022-12-18T10:19:40;21.05;;;10.75;;
68214;SDS011;55036;52.138;5.236;2022-12-18T10:22:19;19.05;;;10.60;;
68214;SDS011;55036;52.138;5.236;2022-12-18T10:24:59;19.10;;;10.93;;
68214;SDS011;55036;52.138;5.236;2022-12-18T10:27:45;19.02;;;11.27;;
68214;SDS011;55036;52.138;5.236;2022-12-18T10:30:13;21.85;;;10.75;;
68214;SDS011;55036;52.138;5.236;2022-12-18T10:32:42;19.33;;;11.48;;
68214;SDS011;55036;52.138;5.236;2022-12-18T10:35:19;17.83;;;11.13;;
68214;SDS011;55036;52.138;5.236;2022-12-18T10:38:04;16.35;;;9.35;;
68214;SDS011;55036;52.138;5.236;2022-12-18T10:40:31;19.83;;;11.50;;
68214;SDS011;55036;52.138;5.236;2022-12-18T10:43:12;17.33;;;11.20;;
68214;SDS011;55036;52.138;5.236;2022-12-18T10:45:40;19.58;;;10.90;;
68214;SDS011;55036;52.138;5.236;2022-12-18T10:48:17;17.52;;;9.32;;
68214;SDS011;55036;52.138;5.236;2022-12-18T10:50:48;18.38;;;10.48;;
68214;SDS011;55036;52.138;5.236;2022-12-18T10:53:36;17.38;;;9.85;;
68214;SDS011;55036;52.138;5.236;2022-12-18T10:56:05;21.38;;;10.65;;
68214;SDS011;55036;52.138;5.236;2022-12-18T11:01:08;19.92;;;10.73;;
68214;SDS011;55036;52.138;5.236;2022-12-18T11:06:14;18.92;;;11.10;;
68214;SDS011;55036;52.138;5.236;2022-12-18T11:08:43;15.75;;;9.40;;
68214;SDS011;55036;52.138;5.236;2022-12-18T11:11:23;16.35;;;10.23;;
68214;SDS011;55036;52.138;5.236;2022-12-18T11:13:58;19.63;;;9.63;;
68214;SDS011;55036;52.138;5.236;2022-12-18T11:16:34;16.00;;;9.88;;
68214;SDS011;55036;52.138;5.236;2022-12-18T11:22:01;16.45;;;10.07;;
68214;SDS011;55036;52.138;5.236;2022-12-18T11:24:30;17.88;;;9.93;;
68214;SDS011;55036;52.138;5.236;2022-12-18T11:27:02;14.20;;;8.63;;
68214;SDS011;55036;52.138;5.236;2022-12-18T11:29:32;18.63;;;9.65;;
68214;SDS011;55036;52.138;5.236;2022-12-18T11:32:22;18.02;;;10.13;;
68214;SDS011;55036;52.138;5.236;2022-12-18T11:35:28;14.43;;;8.75;;
68214;SDS011;55036;52.138;5.236;2022-12-18T11:41:02;14.95;;;8.43;;
68214;SDS011;55036;52.138;5.236;2022-12-18T11:43:44;16.73;;;9.52;;
68214;SDS011;55036;52.138;5.236;2022-12-18T11:46:24;17.75;;;9.50;;
68214;SDS011;55036;52.138;5.236;2022-12-18T11:51:50;15.40;;;9.93;;
68214;SDS011;55036;52.138;5.236;2022-12-18T11:54:18;14.35;;;8.52;;
68214;SDS011;55036;52.138;5.236;2022-12-18T11:56:53;16.73;;;9.43;;
68214;SDS011;55036;52.138;5.236;2022-12-18T11:59:34;13.40;;;7.35;;
68214;SDS011;55036;52.138;5.236;2022-12-18T12:13:03;13.88;;;8.57;;
68214;SDS011;55036;52.138;5.236;2022-12-18T12:18:48;18.33;;;9.20;;
68214;SDS011;55036;52.138;5.236;2022-12-18T12:27:03;21.08;;;13.48;;
68214;SDS011;55036;52.138;5.236;2022-12-18T12:29:56;19.27;;;9.65;;
68214;SDS011;55036;52.138;5.236;2022-12-18T12:40:56;18.35;;;9.82;;
68214;SDS011;55036;52.138;5.236;2022-12-18T12:43:41;18.02;;;9.95;;
68214;SDS011;55036;52.138;5.236;2022-12-18T12:46:31;16.33;;;8.77;;
68214;SDS011;55036;52.138;5.236;2022-12-18T12:49:03;18.92;;;9.20;;
68214;SDS011;55036;52.138;5.236;2022-12-18T12:51:36;16.55;;;9.98;;
68214;SDS011;55036;52.138;5.236;2022-12-18T12:54:11;15.63;;;8.98;;
68214;SDS011;55036;52.138;5.236;2022-12-18T13:02:25;17.52;;;9.55;;
68214;SDS011;55036;52.138;5.236;2022-12-18T13:10:34;16.05;;;9.00;;
68214;SDS011;55036;52.138;5.236;2022-12-18T13:15:37;17.70;;;9.38;;
68214;SDS011;55036;52.138;5.236;2022-12-18T13:20:49;16.83;;;10.27;;
68214;SDS011;55036;52.138;5.236;2022-12-18T13:23:31;16.25;;;9.23;;
68214;SDS011;55036;52.138;5.236;2022-12-18T13:31:13;18.40;;;10.15;;
68214;SDS011;55036;52.138;5.236;2022-12-18T13:33:44;18.65;;;10.60;;
68214;SDS011;55036;52.138;5.236;2022-12-18T13:36:32;19.60;;;10.35;;
68214;SDS011;55036;52.138;5.236;2022-12-18T13:39:11;18.55;;;9.88;;
68214;SDS011;55036;52.138;5.236;2022-12-18T13:41:53;17.90;;;10.20;;
68214;SDS011;55036;52.138;5.236;2022-12-18T13:48:12;16.17;;;10.23;;
68214;SDS011;55036;52.138;5.236;2022-12-18T13:50:42;16.65;;;9.88;;
68214;SDS011;55036;52.138;5.236;2022-12-18T13:53:20;21.50;;;10.82;;
68214;SDS011;55036;52.138;5.236;2022-12-18T13:55:50;17.73;;;10.45;;
68214;SDS011;55036;52.138;5.236;2022-12-18T13:58:18;16.20;;;9.80;;
68214;SDS011;55036;52.138;5.236;2022-12-18T14:00:45;19.20;;;11.00;;
68214;SDS011;55036;52.138;5.236;2022-12-18T14:03:16;18.00;;;9.32;;
68214;SDS011;55036;52.138;5.236;2022-12-18T14:06:10;17.33;;;9.32;;
68214;SDS011;55036;52.138;5.236;2022-12-18T14:08:37;19.95;;;10.20;;
68214;SDS011;55036;52.138;5.236;2022-12-18T14:11:07;17.60;;;10.32;;
68214;SDS011;55036;52.138;5.236;2022-12-18T14:13:44;20.98;;;10.27;;
68214;SDS011;55036;52.138;5.236;2022-12-18T14:16:14;16.02;;;9.68;;
68214;SDS011;55036;52.138;5.236;2022-12-18T14:18:46;16.52;;;10.10;;
68214;SDS011;55036;52.138;5.236;2022-12-18T14:21:22;17.35;;;9.98;;
68214;SDS011;55036;52.138;5.236;2022-12-18T14:24:02;21.83;;;10.60;;
68214;SDS011;55036;52.138;5.236;2022-12-18T14:26:39;17.35;;;10.02;;
68214;SDS011;55036;52.138;5.236;2022-12-18T14:29:26;18.77;;;10.90;;
68214;SDS011;55036;52.138;5.236;2022-12-18T14:32:04;21.13;;;11.07;;
68214;SDS011;55036;52.138;5.236;2022-12-18T14:34:40;17.92;;;10.45;;
68214;SDS011;55036;52.138;5.236;2022-12-18T14:37:09;16.52;;;9.93;;
68214;SDS011;55036;52.138;5.236;2022-12-18T14:39:37;16.40;;;10.13;;
68214;SDS011;55036;52.138;5.236;2022-12-18T14:42:04;18.25;;;10.20;;
68214;SDS011;55036;52.138;5.236;2022-12-18T14:44:31;18.10;;;10.60;;
68214;SDS011;55036;52.138;5.236;2022-12-18T14:47:16;19.00;;;10.50;;
68214;SDS011;55036;52.138;5.236;2022-12-18T14:49:43;19.13;;;10.85;;
68214;SDS011;55036;52.138;5.236;2022-12-18T14:52:24;17.75;;;11.45;;
68214;SDS011;55036;52.138;5.236;2022-12-18T14:54:55;19.80;;;10.75;;
68214;SDS011;55036;52.138;5.236;2022-12-18T14:57:22;23.65;;;11.85;;
68214;SDS011;55036;52.138;5.236;2022-12-18T15:00:05;21.95;;;11.32;;
68214;SDS011;55036;52.138;5.236;2022-12-18T15:02:37;20.17;;;11.30;;
68214;SDS011;55036;52.138;5.236;2022-12-18T15:07:51;19.35;;;12.20;;
68214;SDS011;55036;52.138;5.236;2022-12-18T15:10:20;18.95;;;11.20;;
68214;SDS011;55036;52.138;5.236;2022-12-18T15:12:49;17.10;;;9.98;;
68214;SDS011;55036;52.138;5.236;2022-12-18T15:25:46;20.02;;;10.48;;
68214;SDS011;55036;52.138;5.236;2022-12-18T15:28:36;23.80;;;11.27;;
68214;SDS011;55036;52.138;5.236;2022-12-18T15:31:17;18.92;;;10.82;;
68214;SDS011;55036;52.138;5.236;2022-12-18T15:36:21;20.33;;;10.48;;
68214;SDS011;55036;52.138;5.236;2022-12-18T15:38:52;18.70;;;10.55;;
68214;SDS011;55036;52.138;5.236;2022-12-18T15:41:24;21.98;;;11.98;;
68214;SDS011;55036;52.138;5.236;2022-12-18T15:43:51;26.73;;;13.10;;
68214;SDS011;55036;52.138;5.236;2022-12-18T15:46:20;20.20;;;11.20;;
68214;SDS011;55036;52.138;5.236;2022-12-18T15:48:51;23.67;;;12.18;;
68214;SDS011;55036;52.138;5.236;2022-12-18T15:51:31;21.13;;;11.60;;
68214;SDS011;55036;52.138;5.236;2022-12-18T15:54:00;21.63;;;11.48;;
68214;SDS011;55036;52.138;5.236;2022-12-18T15:56:30;22.40;;;12.95;;
68214;SDS011;55036;52.138;5.236;2022-12-18T15:59:19;20.98;;;10.68;;
68214;SDS011;55036;52.138;5.236;2022-12-18T16:01:47;22.30;;;12.25;;
68214;SDS011;55036;52.138;5.236;2022-12-18T16:04:17;23.52;;;13.68;;
68214;SDS011;55036;52.138;5.236;2022-12-18T16:06:48;25.17;;;13.85;;
68214;SDS011;55036;52.138;5.236;2022-12-18T16:09:35;18.13;;;10.90;;
68214;SDS011;55036;52.138;5.236;2022-12-18T16:12:02;26.15;;;14.02;;
68214;SDS011;55036;52.138;5.236;2022-12-18T16:14:30;21.60;;;12.05;;
68214;SDS011;55036;52.138;5.236;2022-12-18T16:17:01;24.00;;;12.45;;
68214;SDS011;55036;52.138;5.236;2022-12-18T16:19:31;20.58;;;11.73;;
68214;SDS011;55036;52.138;5.236;2022-12-18T16:21:58;25.63;;;12.55;;
68214;SDS011;55036;52.138;5.236;2022-12-18T16:24:28;23.10;;;12.23;;
68214;SDS011;55036;52.138;5.236;2022-12-18T16:26:58;22.60;;;12.45;;
68214;SDS011;55036;52.138;5.236;2022-12-18T16:29:26;21.30;;;12.13;;
68214;SDS011;55036;52.138;5.236;2022-12-18T16:31:54;21.88;;;12.88;;
68214;SDS011;55036;52.138;5.236;2022-12-18T16:34:26;24.23;;;13.65;;
68214;SDS011;55036;52.138;5.236;2022-12-18T16:36:58;20.85;;;12.52;;
68214;SDS011;55036;52.138;5.236;2022-12-18T16:39:31;20.70;;;11.95;;
68214;SDS011;55036;52.138;5.236;2022-12-18T16:42:01;19.02;;;10.18;;
68214;SDS011;55036;52.138;5.236;2022-12-18T16:44:31;27.38;;;12.75;;
68214;SDS011;55036;52.138;5.236;2022-12-18T16:46:58;27.15;;;13.13;;